Impacts METAR Board
IDs:

KGRK - Killeen-Ft Hood Rgnl, TX, US

Updated at: 1200 UTC 16 Jul 2019
Potential Impact None Slight Moderate High
Time 16/00Z 16/01Z 16/02Z 16/03Z 16/04Z 16/05Z 16/06Z 16/07Z 16/08Z 16/09Z 16/10Z 16/11Z 16/12Z
Temp91 88 85 82 82 80 80 80 79 78 77 76
Dewpt71 72 71 71 72 73 72 73 73 73 72 72
Altim29.87 29.88 29.88 29.90 29.91 29.93 29.94 29.94 29.94 29.94 29.94 29.96
VIS10 10 10 10 10 10 10 10 10 10 10 10
CIG-- -- -- -- -- -- -- -- -- -- -- --
CoverFEWCLRCLRCLRCLRCLRCLRCLRCLRCLRCLRCLR
FltCatVFRVFRVFRVFRVFRVFRVFRVFRVFRVFRVFRVFR
WX------------------------
WDir160160170130160160160170170160170170
WSpd10 7 5 3 4 5 6 8 8 7 10 8
WGst-- -- -- -- -- -- -- -- -- -- -- --
Raw hourly METARs
KGRK 152358Z AUTO 16010KT 10SM FEW085 33/22 A2987 RMK AO2 SLP103 T03280217 10351 20317 56007
KGRK 160058Z AUTO 16007KT 10SM CLR 31/22 A2988 RMK AO2 SLP107 T03120224
KGRK 160158Z AUTO 17005KT 10SM CLR 30/22 A2988 RMK AO2 SLP107 T02950216
KGRK 160258Z AUTO 13003KT 10SM CLR 28/22 A2990 RMK AO2 SLP113 T02760219 51009
KGRK 160358Z AUTO 16004KT 10SM CLR 28/22 A2991 RMK AO2 SLP116 T02790222
KGRK 160458Z AUTO 16005KT 10SM CLR 27/23 A2993 RMK AO2 SLP123 T02680225
KGRK 160558Z AUTO 16006KT 10SM CLR 26/22 A2994 RMK AO2 SLP126 T02640224 10325 20261 403510229 52013
KGRK 160658Z AUTO 17008KT 10SM CLR 27/23 A2994 RMK AO2 SLP126 T02650227
KGRK 160758Z AUTO 17008KT 10SM CLR 26/23 A2994 RMK AO2 SLP126 T02600229
KGRK 160858Z AUTO 16007KT 10SM CLR 25/23 A2994 RMK AO2 SLP126 T02530228 51002
KGRK 160958Z AUTO 17010KT 10SM CLR 25/22 A2994 RMK AO2 SLP126 T02500224
KGRK 161058Z AUTO 17008KT 10SM CLR 24/22 A2996 RMK AO2 SLP133 T02440221